Aviation Digital Data Service (ADDS)

Output produced by METARs form (1311 UTC 01 April 2015)
found at http://aviationweather.gov/adds/metars/
 
KFNT 011128Z 0112/0212 VRB03KT P6SM SKC 
     TEMPO 0112/0113 2SM BR 
     FM012000 15007KT P6SM SCT100 BKN250 
     FM020200 20013KT P6SM SCT250 WS010/23040KT